PAEI METAR and TAF weather

Enter ICAO airport designator
Station Type Date Time Source
PAEI METAR 2019/05/26 01:56 UTC NOAA

PAEI 260156Z AUTO 14011KT 10SM CLR 24/05 A2978 RMK AO2 SLP088 T02370046 $


Station Type Date Time Source
PAEI Decoded METAR 2019/05/26 01:56 UTC NOAA

Fairbanks, Eielson Air Force Base, AK, United States (PAEI) 64-39N 147-06W 167M
May 25, 2019 - 09:56 PM EDT / 2019.05.26 0156 UTC
Wind: from the SE (140 degrees) at 13 MPH (11 KT):0
Visibility: 10 mile(s):0
Sky conditions: clear
Temperature: 74.7 F (23.7 C)
Dew Point: 40.3 F (4.6 C)
Relative Humidity: 28%
Pressure (altimeter): 29.78 in. Hg (1008 hPa)
ob: PAEI 260156Z AUTO 14011KT 10SM CLR 24/05 A2978 RMK AO2 SLP088 T02370046
cycle: 2

Station Type Date Time Source
PAEI TAF 2019/05/26 01:03 UTC NOAA

TAF TAF
AMD PAEI 260158Z 2601/2702 14012G18KT 9999 SCT040 QNH2975INS
BECMG 2609/2610 VRB06KT 9999 SCT045 BKN060 620604 QNH2970INS TX24/2602Z TN15/2614Z

Example: see airport list